createdAt,value
2017-07-28T00:01:24.303Z,2.87
2017-07-28T00:03:51.823Z,1.83
2017-07-28T00:06:19.385Z,4.50
2017-07-28T00:08:46.908Z,2.87
2017-07-28T00:11:14.455Z,1.20
2017-07-28T00:13:41.974Z,1.77
2017-07-28T00:16:09.531Z,2.30
2017-07-28T00:18:37.057Z,2.00
2017-07-28T00:21:04.631Z,1.70
2017-07-28T00:23:32.148Z,1.53
2017-07-28T00:25:59.671Z,1.77
2017-07-28T00:28:27.242Z,3.23
2017-07-28T00:30:54.791Z,2.03
2017-07-28T00:33:22.316Z,1.57
2017-07-28T00:35:49.862Z,3.90
2017-07-28T00:38:17.387Z,3.33
2017-07-28T00:40:44.937Z,1.47
2017-07-28T00:43:12.456Z,1.70
2017-07-28T00:45:40.023Z,1.90
2017-07-28T00:48:07.606Z,1.17
2017-07-28T00:50:35.152Z,1.90
2017-07-28T00:53:02.664Z,2.77
2017-07-28T00:55:30.211Z,1.57
2017-07-28T00:57:57.729Z,3.20
2017-07-28T01:00:25.240Z,1.80
2017-07-28T01:02:52.795Z,2.53
2017-07-28T01:05:20.317Z,2.23
2017-07-28T01:07:47.873Z,2.10
2017-07-28T01:10:15.389Z,2.97
2017-07-28T01:12:42.944Z,2.07
2017-07-28T01:15:10.467Z,1.73
2017-07-28T01:17:38.010Z,2.00
2017-07-28T01:20:05.543Z,4.27
2017-07-28T01:22:33.099Z,6.10
2017-07-28T01:25:00.609Z,6.10
2017-07-28T01:27:28.170Z,2.80
2017-07-28T01:29:55.685Z,3.90
2017-07-28T01:32:23.205Z,3.30
2017-07-28T01:34:50.747Z,2.00
2017-07-28T01:37:18.256Z,1.83
2017-07-28T01:39:45.801Z,4.17
2017-07-28T01:42:13.313Z,5.80
2017-07-28T01:44:40.854Z,2.80
2017-07-28T01:47:08.375Z,5.27
2017-07-28T01:49:35.929Z,1.60
2017-07-28T01:52:03.490Z,5.33
2017-07-28T01:54:31.102Z,4.17
2017-07-28T01:56:58.665Z,2.17
2017-07-28T01:59:26.222Z,10.80
2017-07-28T02:01:53.741Z,5.40
2017-07-28T02:04:21.350Z,2.00
2017-07-28T02:06:48.871Z,2.40
2017-07-28T02:09:16.422Z,2.17
2017-07-28T02:11:43.940Z,2.87
2017-07-28T02:14:11.496Z,7.10
2017-07-28T02:16:39.013Z,5.23
2017-07-28T02:19:06.530Z,2.43
2017-07-28T02:21:34.074Z,3.20
2017-07-28T02:24:01.589Z,12.50
2017-07-28T02:26:29.138Z,2.83
2017-07-28T02:28:56.659Z,1.87
2017-07-28T02:31:24.202Z,7.87
2017-07-28T02:33:51.721Z,3.83
2017-07-28T02:36:19.274Z,3.43
2017-07-28T02:38:46.789Z,3.43
2017-07-28T02:41:14.342Z,4.23
2017-07-28T02:43:41.862Z,3.50
2017-07-28T02:46:09.414Z,2.17
2017-07-28T02:48:36.925Z,6.17
2017-07-28T02:51:04.473Z,5.20
2017-07-28T02:53:31.987Z,4.37
2017-07-28T02:55:59.573Z,2.40
2017-07-28T02:58:27.089Z,3.53
2017-07-28T03:00:54.637Z,8.23
2017-07-28T03:03:22.149Z,4.47
2017-07-28T03:05:49.713Z,7.73
2017-07-28T03:08:17.230Z,11.00
2017-07-28T03:10:44.748Z,5.50
2017-07-28T03:13:12.291Z,3.07
2017-07-28T03:15:39.810Z,3.60
2017-07-28T03:18:07.363Z,5.87
2017-07-28T03:20:34.887Z,5.63
2017-07-28T03:23:02.439Z,3.87
2017-07-28T03:25:29.964Z,5.33
2017-07-28T03:27:57.514Z,3.67
2017-07-28T03:30:25.046Z,2.83
2017-07-28T03:32:52.601Z,8.07
2017-07-28T03:35:20.123Z,2.63
2017-07-28T03:37:47.686Z,8.60
2017-07-28T03:40:15.214Z,5.13
2017-07-28T03:42:42.767Z,10.50
2017-07-28T03:45:10.281Z,9.77
2017-07-28T03:47:37.824Z,5.60
2017-07-28T03:50:05.341Z,7.87
2017-07-28T03:52:32.892Z,2.80
2017-07-28T03:55:00.431Z,5.70
2017-07-28T03:57:27.993Z,4.20
2017-07-28T03:59:55.516Z,7.87
2017-07-28T04:02:23.034Z,3.80
2017-07-28T04:04:50.634Z,3.57
2017-07-28T04:07:18.155Z,8.30
2017-07-28T04:09:45.696Z,5.07
2017-07-28T04:12:13.309Z,6.00
2017-07-28T04:14:40.860Z,4.10
2017-07-28T04:17:08.380Z,4.00
2017-07-28T04:19:35.945Z,16.53
2017-07-28T04:22:03.469Z,4.00
2017-07-28T04:24:31.016Z,12.43
2017-07-28T04:26:58.544Z,9.13
2017-07-28T04:29:26.099Z,11.63
2017-07-28T04:31:53.630Z,6.00
2017-07-28T04:34:21.182Z,7.07
2017-07-28T04:36:49.601Z,4.90
2017-07-28T04:39:17.185Z,2.77
2017-07-28T04:41:44.706Z,4.03
2017-07-28T04:44:12.248Z,8.00
2017-07-28T04:46:39.760Z,9.80
2017-07-28T04:49:07.325Z,7.23
2017-07-28T04:51:34.848Z,7.90
2017-07-28T04:54:02.387Z,3.80
2017-07-28T04:56:29.940Z,5.57
2017-07-28T04:58:57.462Z,11.47
2017-07-28T05:01:25.016Z,4.73
2017-07-28T05:03:52.531Z,4.17
2017-07-28T05:06:20.081Z,7.17
2017-07-28T05:08:47.694Z,6.13
2017-07-28T05:11:15.257Z,16.27
2017-07-28T05:13:42.814Z,22.73
2017-07-28T05:16:10.386Z,19.10
2017-07-28T05:18:37.910Z,13.00
2017-07-28T05:21:05.470Z,13.30
2017-07-28T05:23:32.993Z,25.77
2017-07-28T05:26:00.549Z,10.53
2017-07-28T05:28:28.066Z,16.13
2017-07-28T05:30:55.619Z,8.40
2017-07-28T05:33:23.140Z,18.33
2017-07-28T05:35:50.714Z,11.90
2017-07-28T05:38:18.238Z,12.07
2017-07-28T05:40:45.761Z,15.03
2017-07-28T05:43:13.314Z,5.50
2017-07-28T05:45:40.830Z,8.17
2017-07-28T05:48:08.377Z,9.37
2017-07-28T05:50:35.898Z,21.97
2017-07-28T05:53:03.451Z,15.73
2017-07-28T05:55:31.003Z,16.63
2017-07-28T05:57:58.552Z,7.93
2017-07-28T06:00:26.069Z,6.23
2017-07-28T06:02:53.616Z,12.57
2017-07-28T06:05:21.140Z,19.03
2017-07-28T06:07:48.697Z,7.40
2017-07-28T06:10:16.222Z,12.17
2017-07-28T06:12:43.771Z,8.00
2017-07-28T06:15:11.289Z,6.70
2017-07-28T06:17:38.845Z,12.43
2017-07-28T06:20:06.361Z,6.40
2017-07-28T06:22:33.934Z,5.00
2017-07-28T06:25:01.455Z,7.60
2017-07-28T06:27:28.980Z,6.40
2017-07-28T06:29:56.528Z,9.47
2017-07-28T06:32:24.041Z,5.43
2017-07-28T06:34:51.592Z,6.50
2017-07-28T06:37:19.110Z,5.57
2017-07-28T06:39:46.650Z,8.27
2017-07-28T06:42:14.174Z,9.03
2017-07-28T06:44:41.723Z,7.53
2017-07-28T06:47:09.249Z,5.60
2017-07-28T06:49:36.804Z,7.33
2017-07-28T06:52:05.059Z,4.40
2017-07-28T06:54:33.555Z,8.57
2017-07-28T06:57:02.698Z,4.67
2017-07-28T06:59:30.552Z,6.07
2017-07-28T07:01:58.383Z,3.97
2017-07-28T07:04:27.410Z,4.13
2017-07-28T07:06:56.339Z,5.23
2017-07-28T07:09:25.142Z,6.73
2017-07-28T07:11:53.948Z,3.40
2017-07-28T07:14:23.067Z,13.47
2017-07-28T07:16:52.159Z,3.53
2017-07-28T07:19:21.284Z,7.57
2017-07-28T07:21:49.364Z,5.00
2017-07-28T07:24:17.865Z,3.30
2017-07-28T07:26:46.490Z,3.90
2017-07-28T07:29:15.166Z,5.97
2017-07-28T07:31:43.785Z,3.60
2017-07-28T07:34:12.788Z,8.43
2017-07-28T07:36:41.755Z,6.07
2017-07-28T07:39:09.492Z,3.23
2017-07-28T07:41:38.163Z,5.33
2017-07-28T07:44:06.979Z,2.60
2017-07-28T07:46:36.098Z,3.40
2017-07-28T07:49:04.227Z,3.13
2017-07-28T07:51:33.447Z,4.50
2017-07-28T07:54:02.288Z,4.10
2017-07-28T07:56:31.019Z,3.40
2017-07-28T07:58:59.542Z,6.07
2017-07-28T08:01:27.492Z,3.13
2017-07-28T08:03:56.575Z,4.50
2017-07-28T08:06:25.092Z,5.03
2017-07-28T08:08:53.689Z,4.60
2017-07-28T08:11:21.978Z,3.33
2017-07-28T08:13:50.561Z,4.00
2017-07-28T08:16:19.498Z,6.00
2017-07-28T08:18:48.512Z,5.87
2017-07-28T08:21:16.932Z,4.33
2017-07-28T08:23:45.422Z,5.67
2017-07-28T08:26:14.184Z,4.77
2017-07-28T08:28:42.498Z,3.90
2017-07-28T08:31:11.685Z,3.70
2017-07-28T08:33:40.490Z,4.97
2017-07-28T08:36:08.656Z,6.23
2017-07-28T08:38:36.205Z,2.70
2017-07-28T08:41:04.829Z,3.97
2017-07-28T08:43:33.799Z,7.67
2017-07-28T08:46:01.849Z,5.17
2017-07-28T08:48:30.330Z,6.73
2017-07-28T08:50:59.101Z,5.77
2017-07-28T08:53:27.929Z,5.10
2017-07-28T08:55:57.095Z,4.37
2017-07-28T08:58:26.136Z,2.50
2017-07-28T09:00:55.053Z,3.80
2017-07-28T09:03:24.214Z,3.47
2017-07-28T09:05:52.933Z,7.30
2017-07-28T09:08:21.773Z,9.33
2017-07-28T09:10:50.065Z,8.57
2017-07-28T09:13:17.959Z,4.33
2017-07-28T09:15:47.051Z,4.03
2017-07-28T09:18:15.493Z,10.07
2017-07-28T09:20:43.899Z,5.37
2017-07-28T09:23:12.522Z,5.83
2017-07-28T09:25:41.385Z,5.23
2017-07-28T09:28:09.548Z,5.30
2017-07-28T09:30:38.548Z,5.30
2017-07-28T09:33:07.270Z,4.80
2017-07-28T09:35:35.790Z,7.80
2017-07-28T09:38:04.688Z,3.77
2017-07-28T09:40:32.886Z,6.30
2017-07-28T09:43:01.624Z,5.97
2017-07-28T09:45:30.176Z,6.50
2017-07-28T09:47:59.060Z,9.00
2017-07-28T09:50:28.014Z,5.83
2017-07-28T09:52:57.097Z,6.20
2017-07-28T09:55:26.084Z,7.60
2017-07-28T09:57:54.558Z,4.33
2017-07-28T10:00:23.026Z,2.43
2017-07-28T10:02:51.170Z,4.97
2017-07-28T10:05:20.084Z,4.70
2017-07-28T10:07:49.963Z,2.60
2017-07-28T10:10:17.514Z,5.13
2017-07-28T10:12:45.042Z,29.10
2017-07-28T10:15:12.588Z,6.20
2017-07-28T10:17:40.106Z,7.00
2017-07-28T10:20:07.674Z,4.93
2017-07-28T10:22:35.194Z,4.73
2017-07-28T10:25:02.712Z,4.87
2017-07-28T10:27:30.519Z,5.33
2017-07-28T10:29:58.596Z,2.43
2017-07-28T10:32:26.157Z,4.77
2017-07-28T10:34:53.689Z,6.97
2017-07-28T10:37:21.524Z,9.07
2017-07-28T10:39:50.541Z,5.43
2017-07-28T10:42:19.554Z,5.23
2017-07-28T10:44:48.635Z,5.90
2017-07-28T10:47:17.693Z,5.90
2017-07-28T10:49:46.366Z,5.30
2017-07-28T10:52:15.165Z,4.50
2017-07-28T10:54:44.189Z,5.03
2017-07-28T10:57:13.206Z,6.93
2017-07-28T10:59:42.126Z,6.90
2017-07-28T11:02:11.070Z,5.40
2017-07-28T11:04:38.583Z,6.73
2017-07-28T11:07:06.136Z,5.00
2017-07-28T11:09:33.667Z,6.20
2017-07-28T11:12:01.222Z,4.60
2017-07-28T11:14:28.738Z,6.10
2017-07-28T11:16:56.497Z,10.77
2017-07-28T11:19:24.058Z,2.83
2017-07-28T11:21:51.824Z,7.13
2017-07-28T11:24:19.695Z,4.30
2017-07-28T11:26:48.583Z,6.90
2017-07-28T11:29:17.663Z,7.17
2017-07-28T11:31:46.596Z,4.60
2017-07-28T11:34:15.456Z,3.23
2017-07-28T11:36:43.858Z,6.30
2017-07-28T11:39:12.963Z,4.63
2017-07-28T11:41:41.618Z,8.50
2017-07-28T11:44:09.854Z,4.00
2017-07-28T11:46:38.523Z,2.30
2017-07-28T11:49:07.614Z,5.40
2017-07-28T11:51:36.738Z,3.70
2017-07-28T11:54:05.685Z,3.33
2017-07-28T11:56:33.360Z,7.47
2017-07-28T11:59:02.358Z,4.10
2017-07-28T12:01:30.892Z,7.03
2017-07-28T12:03:59.815Z,3.50
2017-07-28T12:06:29.028Z,8.57
2017-07-28T12:08:57.659Z,4.20
2017-07-28T12:11:26.583Z,7.13
2017-07-28T12:13:55.472Z,4.40
2017-07-28T12:16:24.482Z,4.43
2017-07-28T12:18:53.201Z,3.17
2017-07-28T12:21:21.757Z,2.50
2017-07-28T12:23:50.667Z,13.50
2017-07-28T12:26:19.639Z,6.10
2017-07-28T12:28:48.335Z,3.80
2017-07-28T12:31:17.239Z,5.97
2017-07-28T12:33:45.637Z,3.90
2017-07-28T12:36:13.673Z,3.97
2017-07-28T12:38:42.382Z,8.00
2017-07-28T12:41:11.172Z,8.33
2017-07-28T12:43:40.261Z,5.83
2017-07-28T12:46:08.851Z,4.90
2017-07-28T12:48:37.631Z,4.90
2017-07-28T12:51:06.044Z,4.77
2017-07-28T12:53:34.126Z,8.23
2017-07-28T12:56:03.192Z,6.03
2017-07-28T12:58:31.415Z,3.73
2017-07-28T13:00:59.056Z,7.83
2017-07-28T13:03:26.573Z,4.70
2017-07-28T13:05:54.119Z,6.00
2017-07-28T13:08:21.655Z,6.27
2017-07-28T13:10:49.208Z,6.73
2017-07-28T13:13:16.724Z,3.27
2017-07-28T13:15:44.288Z,5.00
2017-07-28T13:18:11.811Z,3.87
2017-07-28T13:20:39.337Z,3.90
2017-07-28T13:23:06.882Z,6.70
2017-07-28T13:25:34.406Z,2.93
2017-07-28T13:28:02.023Z,13.10
2017-07-28T13:30:29.539Z,4.33
2017-07-28T13:32:57.098Z,6.90
2017-07-28T13:35:24.617Z,6.57
2017-07-28T13:37:52.168Z,7.57
2017-07-28T13:40:19.682Z,6.67
2017-07-28T13:42:47.233Z,3.37
2017-07-28T13:45:14.752Z,4.77
2017-07-28T13:47:42.304Z,5.20
2017-07-28T13:50:09.822Z,3.97
2017-07-28T13:52:37.369Z,3.67
2017-07-28T13:55:04.893Z,8.07
2017-07-28T13:57:32.442Z,5.53
2017-07-28T13:59:59.957Z,4.77
2017-07-28T14:02:27.512Z,3.10
2017-07-28T14:04:55.029Z,7.33
2017-07-28T14:07:22.554Z,9.33
2017-07-28T14:09:50.108Z,4.23
2017-07-28T14:12:17.631Z,3.73
2017-07-28T14:14:45.177Z,5.00
2017-07-28T14:17:12.694Z,4.63
2017-07-28T14:19:40.245Z,2.50
2017-07-28T14:22:07.765Z,4.93
2017-07-28T14:24:35.319Z,4.43
2017-07-28T14:27:02.825Z,4.67
2017-07-28T14:29:30.369Z,9.37
2017-07-28T14:31:57.884Z,4.57
2017-07-28T14:34:25.432Z,10.10
2017-07-28T14:36:52.955Z,4.10
2017-07-28T14:39:20.506Z,8.10
2017-07-28T14:41:48.030Z,5.67
2017-07-28T14:44:15.580Z,7.40
2017-07-28T14:46:43.097Z,4.87
2017-07-28T14:49:10.654Z,6.27
2017-07-28T14:51:38.172Z,5.77
2017-07-28T14:54:05.701Z,5.03
2017-07-28T14:56:33.248Z,6.80
2017-07-28T14:59:00.771Z,3.23
2017-07-28T15:01:28.321Z,7.40
2017-07-28T15:03:55.851Z,8.90
2017-07-28T15:06:23.397Z,4.43
2017-07-28T15:08:50.918Z,4.20
2017-07-28T15:11:18.468Z,6.10
2017-07-28T15:13:45.987Z,6.33
2017-07-28T15:16:13.542Z,7.60
2017-07-28T15:18:41.064Z,5.13
2017-07-28T15:21:08.613Z,3.53
2017-07-28T15:23:36.133Z,3.87
2017-07-28T15:26:03.678Z,5.50
2017-07-28T15:28:31.202Z,3.43
2017-07-28T15:30:58.759Z,4.57
2017-07-28T15:33:26.272Z,2.93
2017-07-28T15:35:53.837Z,4.00
2017-07-28T15:38:21.352Z,5.43
2017-07-28T15:40:48.875Z,5.20
2017-07-28T15:43:16.426Z,4.00
2017-07-28T15:45:43.941Z,8.10
2017-07-28T15:48:11.494Z,6.80
2017-07-28T15:50:39.012Z,6.00
2017-07-28T15:53:06.565Z,3.23
2017-07-28T15:55:34.081Z,6.77
2017-07-28T15:58:02.915Z,4.87
2017-07-28T16:00:31.774Z,4.60
2017-07-28T16:03:00.194Z,6.40
2017-07-28T16:05:28.922Z,6.83
2017-07-28T16:07:56.809Z,4.67
2017-07-28T16:10:26.537Z,8.23
2017-07-28T16:12:55.511Z,4.27
2017-07-28T16:15:23.381Z,2.77
2017-07-28T16:17:50.929Z,3.93
2017-07-28T16:20:18.450Z,9.70
2017-07-28T16:22:46.005Z,6.33
2017-07-28T16:25:13.516Z,3.43
2017-07-28T16:27:41.077Z,11.03
2017-07-28T16:30:08.630Z,15.90
2017-07-28T16:32:36.148Z,5.93
2017-07-28T16:35:03.694Z,6.43
2017-07-28T16:37:31.221Z,6.20
2017-07-28T16:39:58.810Z,4.40
2017-07-28T16:42:26.321Z,8.57
2017-07-28T16:44:53.833Z,3.97
2017-07-28T16:47:21.394Z,4.27
2017-07-28T16:49:48.917Z,5.33
2017-07-28T16:52:16.464Z,3.10
2017-07-28T16:54:43.985Z,3.63
2017-07-28T16:57:11.630Z,5.40
2017-07-28T16:59:39.150Z,4.97
2017-07-28T17:02:06.700Z,5.87
2017-07-28T17:04:34.220Z,2.93
2017-07-28T17:07:01.760Z,3.97
2017-07-28T17:09:29.281Z,4.93
2017-07-28T17:11:56.823Z,3.47
2017-07-28T17:14:24.341Z,11.20
2017-07-28T17:16:51.918Z,2.70
2017-07-28T17:19:19.429Z,7.43
2017-07-28T17:21:46.950Z,2.90
2017-07-28T17:24:14.512Z,5.20
2017-07-28T17:26:42.030Z,3.37
2017-07-28T17:29:09.582Z,4.47
2017-07-28T17:31:37.107Z,4.63
2017-07-28T17:34:04.662Z,3.23
2017-07-28T17:36:32.187Z,6.30
2017-07-28T17:38:59.742Z,3.77
2017-07-28T17:41:27.256Z,4.97
2017-07-28T17:43:54.813Z,8.13
2017-07-28T17:46:22.333Z,9.13
2017-07-28T17:48:49.889Z,8.20
2017-07-28T17:51:17.413Z,2.63
2017-07-28T17:53:44.957Z,3.83
2017-07-28T17:56:12.473Z,6.27
2017-07-28T17:58:40.049Z,4.67
2017-07-28T18:01:07.579Z,5.47
2017-07-28T18:03:35.142Z,9.43
2017-07-28T18:06:02.688Z,7.63
2017-07-28T18:08:30.937Z,8.63
2017-07-28T18:10:59.313Z,8.10
2017-07-28T18:13:27.161Z,15.67
2017-07-28T18:15:56.858Z,10.70
2017-07-28T18:18:25.786Z,8.50
2017-07-28T18:20:53.401Z,21.43
2017-07-28T18:23:20.981Z,12.13
2017-07-28T18:25:48.500Z,9.23
2017-07-28T18:28:16.012Z,9.73
2017-07-28T18:30:43.582Z,9.80
2017-07-28T18:33:11.107Z,5.50
2017-07-28T18:35:38.634Z,21.93
2017-07-28T18:38:06.195Z,23.23
2017-07-28T18:40:33.721Z,10.07
2017-07-28T18:43:01.244Z,13.50
2017-07-28T18:45:28.815Z,7.17
2017-07-28T18:47:56.339Z,5.73
2017-07-28T18:50:23.858Z,7.03
2017-07-28T18:52:51.432Z,4.73
2017-07-28T18:55:19.251Z,9.60
2017-07-28T18:57:46.907Z,11.53
2017-07-28T19:00:14.494Z,9.13
2017-07-28T19:02:42.154Z,15.57
2017-07-28T19:05:09.739Z,13.90
2017-07-28T19:07:39.299Z,11.40
2017-07-28T19:10:07.446Z,14.67
2017-07-28T19:12:35.431Z,24.17
2017-07-28T19:15:03.322Z,15.20
2017-07-28T19:17:31.744Z,14.30
2017-07-28T19:19:59.650Z,21.27
2017-07-28T19:22:27.688Z,7.70
2017-07-28T19:24:55.415Z,14.90
2017-07-28T19:27:23.176Z,11.37
2017-07-28T19:29:50.948Z,14.93
2017-07-28T19:32:18.721Z,6.97
2017-07-28T19:34:46.340Z,7.83
2017-07-28T19:37:14.135Z,7.17
2017-07-28T19:39:42.783Z,6.10
2017-07-28T19:42:10.467Z,8.70
2017-07-28T19:44:38.441Z,6.03
2017-07-28T19:47:06.104Z,6.37
2017-07-28T19:49:33.971Z,20.23
2017-07-28T19:52:01.554Z,13.40
2017-07-28T19:54:29.385Z,13.60
2017-07-28T19:56:57.303Z,9.67
2017-07-28T19:59:24.891Z,12.00
2017-07-28T20:01:53.899Z,12.73
2017-07-28T20:04:23.009Z,19.53
2017-07-28T20:06:51.304Z,15.53
2017-07-28T20:09:19.142Z,20.50
2017-07-28T20:11:47.875Z,13.90
2017-07-28T20:14:16.376Z,11.17
2017-07-28T20:16:44.701Z,6.10
2017-07-28T20:19:12.778Z,8.07
2017-07-28T20:21:41.109Z,8.37
2017-07-28T20:24:09.024Z,7.60
2017-07-28T20:26:37.581Z,16.50
2017-07-28T20:29:05.976Z,7.90
2017-07-28T20:31:33.752Z,6.03
2017-07-28T20:34:01.369Z,18.33
2017-07-28T20:36:28.902Z,15.83
2017-07-28T20:38:56.469Z,10.70
2017-07-28T20:41:23.984Z,28.07
2017-07-28T20:43:51.508Z,46.73
2017-07-28T20:46:19.057Z,47.33
2017-07-28T20:48:46.582Z,42.07
2017-07-28T20:51:14.137Z,32.20
